Time;durP1;ratioP1;P1;durP2;ratioP2;P2;SDS_P1;SDS_P2;PMS_P1;PMS_P2;Temp;Humidity;BMP_temperature;BMP_pressure;BME280_temperature;BME280_humidity;BME280_pressure;Samples;Min_cycle;Max_cycle;Signal;HPM_P1;HPM_P2
2021/07/31 00:00:56;;;;;;;3.53;3.22;;;;;;;-148.56;100.00;61375.16;4982452;28;20104;-32
2021/07/31 00:03:22;;;;;;;5.90;3.75;;;;;;;29.93;38.49;61949.69;4986126;28;20037;-32
2021/07/31 00:05:47;;;;;;;8.45;3.60;;;;;;;29.91;38.59;61947.66;4989096;28;20030;-36
2021/07/31 00:08:13;;;;;;;6.82;3.55;;;;;;;29.89;38.59;61945.25;4985880;28;20034;-32
2021/07/31 00:10:38;;;;;;;6.45;3.60;;;;;;;29.86;38.63;61943.19;4985696;28;20034;-34
2021/07/31 00:13:03;;;;;;;4.28;3.20;;;;;;;29.85;38.85;61941.06;4983356;28;20041;-36
2021/07/31 00:15:29;;;;;;;5.45;3.25;;;;;;;29.83;38.54;61939.28;4982558;28;20033;-32
2021/07/31 00:17:54;;;;;;;3.30;3.00;;;;;;;29.81;38.81;61937.19;4983278;28;20030;-32
2021/07/31 00:20:20;;;;;;;4.75;3.58;;;;;;;29.79;38.83;61935.69;4990812;28;20036;-36
2021/07/31 00:22:45;;;;;;;6.07;3.20;;;;;;;29.78;38.84;61933.50;4988440;28;20017;-34
2021/07/31 00:25:36;;;;;;;6.13;3.33;;;;;;;-148.56;100.00;61375.16;4987125;28;20021;-34
2021/07/31 00:28:02;;;;;;;6.25;3.10;;;;;;;-148.56;100.00;61375.16;4991544;28;20033;-34
2021/07/31 00:30:28;;;;;;;4.90;3.33;;;;;;;-148.56;100.00;61375.16;4987154;28;20096;-36
2021/07/31 00:32:53;;;;;;;5.78;3.53;;;;;;;29.77;38.65;61932.09;4992564;28;20042;-35
2021/07/31 00:35:19;;;;;;;4.28;3.15;;;;;;;29.76;38.65;61931.16;4986038;28;20392;-33
2021/07/31 00:37:44;;;;;;;4.43;2.95;;;;;;;29.74;38.71;61929.94;4992025;28;20428;-32
2021/07/31 00:40:10;;;;;;;5.75;3.30;;;;;;;29.73;38.66;61929.31;4988181;28;20038;-33
2021/07/31 00:42:42;;;;;;;6.78;3.20;;;;;;;29.72;38.75;61928.31;5005443;28;20022;-37
2021/07/31 00:45:09;;;;;;;8.88;3.67;;;;;;;29.71;38.87;61927.34;4987431;28;20022;-33
2021/07/31 00:47:34;;;;;;;6.43;3.38;;;;;;;29.70;38.73;61926.25;4988193;28;20056;-34
2021/07/31 00:50:00;;;;;;;5.47;3.10;;;;;;;29.70;38.69;61925.75;4989883;28;20524;-32
2021/07/31 00:52:25;;;;;;;5.10;3.55;;;;;;;29.69;38.62;61924.78;4993105;28;20042;-32
2021/07/31 00:54:51;;;;;;;5.30;3.17;;;;;;;29.68;38.94;61923.78;4991480;28;20034;-33
2021/07/31 00:57:17;;;;;;;4.88;2.92;;;;;;;29.67;38.88;61922.97;4986384;28;20670;-31
2021/07/31 00:59:42;;;;;;;6.70;3.50;;;;;;;29.66;38.77;61921.94;5003029;28;20032;-33
2021/07/31 01:02:07;;;;;;;4.90;2.75;;;;;;;29.66;38.50;61921.22;4988463;28;20041;-34
2021/07/31 01:04:33;;;;;;;5.40;3.13;;;;;;;29.65;38.83;61920.56;4989141;28;20636;-34
2021/07/31 01:06:58;;;;;;;5.07;3.38;;;;;;;29.64;38.76;61919.41;4990995;28;20074;-34
2021/07/31 01:09:24;;;;;;;4.53;3.20;;;;;;;29.63;38.93;61918.41;4986741;28;20230;-32
2021/07/31 01:11:49;;;;;;;8.30;2.92;;;;;;;29.63;38.61;61917.41;4987217;28;20041;-34
2021/07/31 01:14:14;;;;;;;3.85;3.20;;;;;;;29.62;38.74;61916.84;4988569;28;20033;-33
2021/07/31 01:16:40;;;;;;;6.15;3.35;;;;;;;-148.56;100.00;61375.16;4990546;28;20053;-32
2021/07/31 01:19:05;;;;;;;5.35;2.90;;;;;;;-148.56;100.00;61375.16;4983208;28;20680;-36
2021/07/31 01:21:38;;;;;;;6.35;3.05;;;;;;;29.61;38.93;61916.16;4988110;28;20029;-33
2021/07/31 01:24:04;;;;;;;5.65;3.28;;;;;;;29.60;38.66;61915.38;4990980;28;20026;-33
2021/07/31 01:26:30;;;;;;;3.20;2.78;;;;;;;29.59;38.89;61914.88;4998835;28;20041;-33
2021/07/31 01:28:55;;;;;;;5.70;2.97;;;;;;;29.58;38.93;61913.59;4985402;28;20500;-35
2021/07/31 01:31:20;;;;;;;5.20;2.85;;;;;;;29.58;38.76;61912.59;4984627;28;20492;-35
2021/07/31 01:33:46;;;;;;;4.97;2.85;;;;;;;29.57;38.73;61911.34;4991230;28;20029;-34
2021/07/31 01:36:11;;;;;;;4.13;2.80;;;;;;;29.56;38.61;61910.19;4988402;28;20685;-33
2021/07/31 01:38:37;;;;;;;3.40;2.60;;;;;;;29.54;38.74;61908.94;4985120;28;20044;-34
2021/07/31 01:41:02;;;;;;;3.58;2.75;;;;;;;29.54;38.64;61908.09;4989679;28;20034;-33
2021/07/31 01:43:28;;;;;;;3.67;2.58;;;;;;;29.53;38.79;61907.25;4988946;28;20026;-33
2021/07/31 01:45:53;;;;;;;3.90;2.40;;;;;;;29.52;38.47;61906.59;4984314;28;20033;-35
2021/07/31 01:48:18;;;;;;;5.32;2.60;;;;;;;29.51;38.86;61905.59;4984844;28;20248;-33
2021/07/31 01:50:44;;;;;;;3.72;2.65;;;;;;;29.51;38.58;61905.06;4984047;28;20034;-33
2021/07/31 01:53:10;;;;;;;6.43;2.80;;;;;;;29.50;38.64;61904.22;4988127;28;20037;-33
2021/07/31 01:55:38;;;;;;;5.32;3.05;;;;;;;29.49;38.55;61903.22;4991219;28;20590;-34
2021/07/31 01:58:03;;;;;;;4.25;2.38;;;;;;;29.48;38.49;61902.66;4985842;28;20258;-37
2021/07/31 02:00:28;;;;;;;5.10;2.50;;;;;;;29.48;38.38;61901.66;4989162;28;20378;-34
2021/07/31 02:02:54;;;;;;;4.47;2.65;;;;;;;29.47;38.12;61901.09;4990391;28;20034;-34
2021/07/31 02:05:19;;;;;;;3.45;2.22;;;;;;;29.46;38.21;61900.44;4984696;28;20451;-34
2021/07/31 02:07:45;;;;;;;8.68;2.70;;;;;;;29.46;38.14;61899.94;4986998;28;20073;-34
2021/07/31 02:10:10;;;;;;;4.63;2.45;;;;;;;29.45;38.22;61899.38;4989859;28;20497;-33
2021/07/31 02:12:36;;;;;;;4.45;2.53;;;;;;;29.44;38.31;61899.03;4987905;28;20109;-33
2021/07/31 02:15:01;;;;;;;3.30;2.15;;;;;;;29.44;38.47;61898.19;4987272;28;20053;-35
2021/07/31 02:17:26;;;;;;;5.32;2.60;;;;;;;29.43;38.19;61897.66;4988314;28;20030;-33
2021/07/31 02:19:52;;;;;;;4.53;2.30;;;;;;;29.42;38.23;61896.66;4987024;28;20597;-34
2021/07/31 02:22:17;;;;;;;3.80;2.38;;;;;;;29.41;38.21;61895.50;4985984;28;20025;-32
2021/07/31 02:24:42;;;;;;;5.53;2.55;;;;;;;29.41;38.12;61894.47;4988130;28;20030;-32
2021/07/31 02:27:08;;;;;;;2.40;2.13;;;;;;;29.40;38.09;61893.75;4990229;28;20030;-39
2021/07/31 02:29:33;;;;;;;5.47;2.72;;;;;;;29.39;37.96;61892.75;4983998;28;20030;-35
2021/07/31 02:31:59;;;;;;;3.13;2.40;;;;;;;29.39;37.96;61892.75;4989724;28;20081;-33
2021/07/31 02:34:24;;;;;;;7.40;2.50;;;;;;;29.39;37.98;61892.47;4989046;28;20140;-35
2021/07/31 02:36:49;;;;;;;2.95;2.03;;;;;;;29.39;37.96;61892.25;4982269;28;20033;-35
2021/07/31 02:39:15;;;;;;;3.65;2.35;;;;;;;29.39;37.96;58875.88;4986346;28;20052;-34
2021/07/31 02:41:40;;;;;;;3.70;2.45;;;;;;;29.38;37.74;61891.88;4985632;28;20622;-34
2021/07/31 02:44:05;;;;;;;4.72;2.13;;;;;;;29.38;37.75;61891.13;4990388;28;20029;-35
2021/07/31 02:46:31;;;;;;;4.60;2.22;;;;;;;29.37;37.72;61890.47;4985929;28;20491;-35
2021/07/31 02:48:57;;;;;;;5.82;2.30;;;;;;;29.36;37.67;61890.25;4985825;28;20030;-32
2021/07/31 02:51:22;;;;;;;3.88;1.98;;;;;;;29.36;37.57;61889.09;4988073;28;20045;-32
2021/07/31 02:53:48;;;;;;;9.57;2.70;;;;;;;29.35;37.65;61888.25;4986136;28;20030;-36
2021/07/31 02:56:13;;;;;;;2.47;1.90;;;;;;;29.34;37.72;61887.56;4985818;28;20030;-35
2021/07/31 02:58:38;;;;;;;5.45;2.22;;;;;;;29.33;37.39;61887.06;4987203;28;20108;-33
2021/07/31 03:01:05;;;;;;;6.63;2.50;;;;;;;29.32;37.36;61886.56;4989280;28;20073;-33
2021/07/31 03:03:30;;;;;;;3.85;2.17;;;;;;;29.32;37.48;61885.72;4984865;28;20034;-34
2021/07/31 03:05:57;;;;;;;4.35;2.25;;;;;;;29.31;37.48;61884.59;4983318;28;20029;-33
2021/07/31 03:08:22;;;;;;;6.57;2.28;;;;;;;29.30;37.44;61884.25;4987732;28;20037;-33
2021/07/31 03:11:00;;;;;;;7.18;2.70;;;;;;;29.29;37.52;61883.59;4988315;28;20029;-34
2021/07/31 03:13:25;;;;;;;2.78;2.03;;;;;;;29.28;37.47;61883.06;4986763;28;20415;-34
2021/07/31 03:15:51;;;;;;;2.95;1.90;;;;;;;29.27;37.57;61882.06;4987322;28;20033;-33
2021/07/31 03:18:17;;;;;;;3.30;1.90;;;;;;;29.26;37.49;61880.97;4986250;28;20061;-34
2021/07/31 03:20:49;;;;;;;3.50;2.10;;;;;;;29.26;37.71;61879.97;4985780;28;20032;-35
2021/07/31 03:23:15;;;;;;;9.55;2.20;;;;;;;29.25;37.53;61878.84;4981853;28;20136;-33
2021/07/31 03:25:41;;;;;;;3.25;2.05;;;;;;;29.24;37.60;61877.69;4982130;28;20026;-33
2021/07/31 03:28:06;;;;;;;6.10;2.10;;;;;;;29.23;37.58;61877.28;4988486;28;20049;-33
2021/07/31 03:30:32;;;;;;;5.93;2.08;;;;;;;29.23;37.69;61876.59;4987928;28;20116;-33
2021/07/31 03:32:57;;;;;;;4.07;1.80;;;;;;;29.22;37.33;61876.06;4986664;28;20042;-34
2021/07/31 03:35:22;;;;;;;3.08;1.90;;;;;;;29.21;37.47;61875.19;4988183;28;20029;-35
2021/07/31 03:37:48;;;;;;;4.40;1.65;;;;;;;29.21;37.42;61874.19;4982894;28;20021;-32
2021/07/31 03:40:13;;;;;;;6.55;2.00;;;;;;;29.20;37.40;61873.25;4987467;28;20030;-33
2021/07/31 03:42:39;;;;;;;3.20;2.00;;;;;;;29.19;37.31;61872.56;4986938;28;20022;-33
2021/07/31 03:45:07;;;;;;;4.72;1.90;;;;;;;29.18;37.33;61871.56;4986711;28;20032;-36
2021/07/31 03:47:32;;;;;;;3.10;1.95;;;;;;;29.17;37.23;61870.91;4986389;28;20041;-35
2021/07/31 03:49:57;;;;;;;3.92;1.92;;;;;;;29.16;37.29;61869.94;5003350;28;20034;-33
2021/07/31 03:52:23;;;;;;;2.65;1.60;;;;;;;29.16;37.27;61869.38;4986371;28;20041;-31
2021/07/31 03:54:48;;;;;;;4.10;1.73;;;;;;;29.15;37.27;61868.28;4987150;28;20044;-38
2021/07/31 03:57:14;;;;;;;6.45;1.75;;;;;;;29.14;37.23;61867.59;4985224;28;20033;-35
2021/07/31 03:59:40;;;;;;;3.60;1.92;;;;;;;29.13;37.33;61866.44;4986665;28;22810;-33
2021/07/31 04:02:05;;;;;;;4.95;1.80;;;;;;;29.12;37.19;61866.09;5002436;28;20034;-33
2021/07/31 04:04:31;;;;;;;3.92;1.65;;;;;;;29.12;37.25;61864.94;4985218;28;20041;-32
2021/07/31 04:06:58;;;;;;;4.30;2.10;;;;;;;29.11;37.30;61864.25;4985631;28;20022;-34
2021/07/31 04:09:23;;;;;;;3.83;2.05;;;;;;;29.10;37.24;61863.88;4984341;28;20034;-33
2021/07/31 04:11:48;;;;;;;6.40;2.08;;;;;;;29.10;36.79;61863.03;4986414;28;20034;-32
2021/07/31 04:14:14;;;;;;;4.22;1.67;;;;;;;29.09;37.22;61862.53;4989856;28;20484;-35
2021/07/31 04:16:39;;;;;;;6.25;1.98;;;;;;;29.08;37.43;61862.28;4983639;28;20547;-39
2021/07/31 04:19:05;;;;;;;3.15;1.90;;;;;;;29.07;37.19;61861.44;4986742;28;20042;-33
2021/07/31 04:21:30;;;;;;;3.50;1.90;;;;;;;29.07;37.27;61860.75;4984896;28;20035;-34
2021/07/31 04:23:55;;;;;;;5.72;1.63;;;;;;;29.06;37.08;61860.25;4984899;28;20425;-34
2021/07/31 04:26:21;;;;;;;4.63;1.90;;;;;;;29.06;37.21;61859.50;4982905;28;20029;-35
2021/07/31 04:28:46;;;;;;;5.00;1.80;;;;;;;29.05;37.47;61858.63;4985859;28;20034;-34
2021/07/31 04:31:13;;;;;;;2.65;1.70;;;;;;;29.05;37.25;61858.06;4989347;28;20030;-32
2021/07/31 04:33:39;;;;;;;4.68;1.60;;;;;;;29.04;37.50;61857.34;4987700;28;20165;-31
2021/07/31 04:36:05;;;;;;;5.80;1.73;;;;;;;29.04;37.25;61856.81;4988041;28;20188;-34
2021/07/31 04:38:30;;;;;;;7.32;1.70;;;;;;;29.03;37.33;61856.22;4986463;28;20117;-32
2021/07/31 04:40:56;;;;;;;4.90;1.55;;;;;;;29.02;37.54;61855.41;4983051;28;20038;-33
2021/07/31 04:43:22;;;;;;;4.07;1.73;;;;;;;29.02;37.48;61854.69;4986366;28;20027;-34
2021/07/31 04:45:47;;;;;;;5.55;1.90;;;;;;;29.01;37.45;61854.28;4988639;28;20040;-36
2021/07/31 04:48:12;;;;;;;7.30;1.80;;;;;;;29.01;37.71;61853.72;4986815;28;20034;-34
2021/07/31 04:50:38;;;;;;;4.30;1.70;;;;;;;29.00;37.18;61852.84;4986188;28;20444;-33
2021/07/31 04:53:03;;;;;;;4.65;1.70;;;;;;;29.00;37.48;61852.78;4987765;28;21084;-32
2021/07/31 04:55:28;;;;;;;4.63;2.25;;;;;;;28.99;37.49;61852.22;4987405;28;20026;-34
2021/07/31 04:57:54;;;;;;;6.70;2.05;;;;;;;28.99;37.46;61851.94;4987706;28;20586;-30
2021/07/31 05:00:19;;;;;;;5.00;1.45;;;;;;;28.99;37.34;61851.34;4986397;28;20033;-32
2021/07/31 05:02:45;;;;;;;4.10;1.55;;;;;;;28.98;37.38;61850.91;4985108;28;20452;-32
2021/07/31 05:05:10;;;;;;;4.90;1.38;;;;;;;28.98;37.34;61850.63;4985902;28;20033;-32
2021/07/31 05:07:36;;;;;;;8.75;1.80;;;;;;;28.98;37.36;61850.25;4985922;28;20026;-38
2021/07/31 05:10:01;;;;;;;9.27;2.10;;;;;;;28.97;37.31;61849.63;4987576;28;20554;-36
2021/07/31 05:12:26;;;;;;;5.30;1.52;;;;;;;28.97;37.43;61849.06;4990599;28;20034;-36
2021/07/31 05:14:52;;;;;;;2.35;1.40;;;;;;;28.97;37.52;61849.28;4992747;28;20587;-33
2021/07/31 05:17:20;;;;;;;6.30;1.60;;;;;;;28.96;37.42;61849.00;4987570;28;20113;-35
2021/07/31 05:19:46;;;;;;;4.93;1.48;;;;;;;28.96;37.54;61848.72;4991097;28;20036;-34
2021/07/31 05:22:13;;;;;;;3.08;1.55;;;;;;;28.95;37.54;61848.31;5002696;28;20073;-32
2021/07/31 05:24:39;;;;;;;5.82;1.80;;;;;;;28.95;37.28;61848.38;4985457;28;20030;-32
2021/07/31 05:27:04;;;;;;;3.00;1.75;;;;;;;28.95;37.55;61847.81;4992026;28;20552;-33
2021/07/31 05:29:31;;;;;;;4.70;1.65;;;;;;;28.94;37.42;61847.53;4986418;28;20286;-32
2021/07/31 05:31:57;;;;;;;2.85;1.67;;;;;;;28.94;37.38;61847.09;4986871;28;20140;-32
2021/07/31 05:34:22;;;;;;;6.15;2.00;;;;;;;28.94;37.47;61846.94;4988923;28;20038;-33
2021/07/31 05:36:48;;;;;;;6.93;1.90;;;;;;;28.94;37.51;61846.50;4989769;28;20119;-33
2021/07/31 05:39:13;;;;;;;3.28;1.30;;;;;;;28.94;37.38;61846.72;4991168;28;20097;-32
2021/07/31 05:41:39;;;;;;;3.83;1.73;;;;;;;28.94;37.51;61846.88;4982797;28;20532;-32
2021/07/31 05:44:05;;;;;;;5.18;1.60;;;;;;;28.93;37.34;61846.28;4987059;28;20022;-33
2021/07/31 05:46:30;;;;;;;4.05;1.55;;;;;;;28.93;37.37;61846.28;4978859;28;20030;-33
2021/07/31 05:48:56;;;;;;;2.20;1.45;;;;;;;28.93;37.30;61846.16;4976016;28;20599;-33
2021/07/31 05:51:21;;;;;;;3.83;1.55;;;;;;;28.93;37.34;61846.44;4986229;28;20100;-36
2021/07/31 05:53:47;;;;;;;5.57;1.77;;;;;;;28.93;37.28;61846.59;4991363;28;20026;-33
2021/07/31 05:56:12;;;;;;;5.80;1.67;;;;;;;28.94;37.40;61846.38;4992665;28;20030;-32
2021/07/31 05:58:37;;;;;;;2.67;1.50;;;;;;;28.94;37.23;61846.22;5005695;28;20034;-35
2021/07/31 06:01:06;;;;;;;5.50;1.48;;;;;;;28.94;37.33;61846.66;4987252;28;20025;-35
2021/07/31 06:03:35;;;;;;;8.57;1.90;;;;;;;28.94;37.25;61846.94;4988698;28;20185;-34
2021/07/31 06:06:00;;;;;;;4.18;1.65;;;;;;;28.94;37.23;61846.88;4985929;28;20554;-31
2021/07/31 06:08:26;;;;;;;4.45;1.38;;;;;;;28.95;37.39;61847.16;4986564;28;20030;-35
2021/07/31 06:11:01;;;;;;;2.88;1.52;;;;;;;28.95;37.30;61847.63;5000415;28;20030;-35
2021/07/31 06:13:26;;;;;;;6.03;1.45;;;;;;;28.95;37.49;61847.88;4991437;28;20029;-35
2021/07/31 06:15:52;;;;;;;2.88;1.45;;;;;;;28.96;37.53;61848.59;4988357;28;20121;-31
2021/07/31 06:18:17;;;;;;;3.58;1.48;;;;;;;28.96;37.28;61848.84;4989343;28;20389;-33
2021/07/31 06:20:43;;;;;;;4.07;1.70;;;;;;;28.97;37.29;61849.88;4987041;28;20034;-33
2021/07/31 06:23:08;;;;;;;3.22;1.02;;;;;;;28.98;37.26;61850.72;4982919;28;20029;-34
2021/07/31 06:25:33;;;;;;;8.38;1.55;;;;;;;28.98;37.40;61851.91;4988939;28;20041;-32
2021/07/31 06:27:59;;;;;;;5.68;1.40;;;;;;;28.99;37.66;61852.72;4985890;28;20034;-32
2021/07/31 06:30:26;;;;;;;17.10;1.88;;;;;;;29.00;37.19;61853.53;4979759;28;20069;-32
2021/07/31 06:32:52;;;;;;;8.05;2.28;;;;;;;29.01;36.06;61854.38;4988103;28;20037;-34
2021/07/31 06:35:17;;;;;;;11.75;2.97;;;;;;;29.01;35.45;61854.84;4987978;28;20034;-36
2021/07/31 06:37:42;;;;;;;12.35;2.75;;;;;;;29.01;35.39;61855.38;4980448;28;20030;-32
2021/07/31 06:40:09;;;;;;;11.13;2.85;;;;;;;29.02;35.14;61856.00;4982752;28;20037;-37
2021/07/31 06:42:34;;;;;;;10.40;2.50;;;;;;;29.01;35.40;61855.72;4981251;28;20559;-37
2021/07/31 06:45:00;;;;;;;7.03;2.58;;;;;;;29.01;35.57;61855.75;4982529;28;20037;-35
2021/07/31 06:47:25;;;;;;;9.73;2.58;;;;;;;29.00;35.65;61854.75;4979580;28;20030;-31
2021/07/31 06:49:51;;;;;;;11.35;3.10;;;;;;;29.00;35.44;61854.09;4978629;28;20033;-34
2021/07/31 06:52:16;;;;;;;7.00;2.17;;;;;;;28.99;34.80;61852.97;4997970;28;20038;-32
2021/07/31 06:54:41;;;;;;;9.55;2.28;;;;;;;28.97;34.27;61851.31;4978988;28;20026;-35
2021/07/31 06:57:10;;;;;;;5.60;2.30;;;;;;;28.95;33.56;61849.19;4981447;28;20030;-35
2021/07/31 06:59:36;;;;;;;8.93;2.53;;;;;;;28.93;33.34;61846.69;4965116;28;20035;-36
2021/07/31 07:02:06;;;;;;;4.68;1.98;;;;;;;28.90;33.06;61843.75;4962296;28;20041;-35
2021/07/31 07:04:32;;;;;;;6.85;2.03;;;;;;;28.88;33.02;61840.94;4963247;28;20057;-35
2021/07/31 07:06:59;;;;;;;6.15;1.98;;;;;;;28.85;32.85;61837.88;4963792;28;20060;-38
2021/07/31 07:09:24;;;;;;;8.52;2.20;;;;;;;28.82;32.73;61835.13;4961543;28;20042;-37
2021/07/31 07:11:50;;;;;;;6.55;2.50;;;;;;;28.79;32.93;61832.25;4979438;28;20538;-37
2021/07/31 07:14:17;;;;;;;7.72;2.20;;;;;;;28.76;33.05;61828.91;4958938;28;20585;-35
2021/07/31 07:16:43;;;;;;;6.55;1.92;;;;;;;28.73;32.75;61825.41;4966014;28;20537;-38
2021/07/31 07:19:08;;;;;;;5.53;2.10;;;;;;;28.70;32.21;61822.06;4966253;28;20566;-32
2021/07/31 07:21:34;;;;;;;7.13;2.00;;;;;;;28.67;32.33;61818.72;4965714;28;20571;-38
2021/07/31 07:23:59;;;;;;;4.15;1.60;;;;;;;28.63;31.94;61815.72;4967582;28;20030;-38
2021/07/31 07:26:25;;;;;;;11.50;1.98;;;;;;;28.60;31.97;61811.94;4966607;28;20034;-32
2021/07/31 07:28:50;;;;;;;19.77;2.15;;;;;;;28.57;31.66;61808.75;4963255;28;20027;-34
2021/07/31 07:31:15;;;;;;;8.50;2.05;;;;;;;28.54;31.58;61804.81;4978356;28;20085;-38
2021/07/31 07:33:41;;;;;;;6.60;1.65;;;;;;;28.50;31.57;61801.38;4963838;28;20588;-35
2021/07/31 07:36:19;;;;;;;7.68;1.67;;;;;;;28.47;31.48;61798.03;4961569;28;20428;-37
2021/07/31 07:38:45;;;;;;;7.45;1.83;;;;;;;28.44;31.69;61794.41;4962387;28;20045;-34
2021/07/31 07:41:11;;;;;;;6.15;2.30;;;;;;;28.40;31.43;61790.47;4964359;28;20428;-34
2021/07/31 07:43:36;;;;;;;5.50;1.77;;;;;;;28.37;31.72;61786.94;4980514;28;20030;-33
2021/07/31 07:46:02;;;;;;;5.43;1.70;;;;;;;28.34;31.70;61783.59;4962230;28;20108;-38
2021/07/31 07:48:27;;;;;;;7.10;1.83;;;;;;;28.31;31.59;61780.41;4962773;28;20398;-35
2021/07/31 07:50:53;;;;;;;8.10;2.05;;;;;;;28.28;31.73;61776.88;4963710;28;20032;-38
2021/07/31 07:53:18;;;;;;;6.95;2.10;;;;;;;28.25;31.81;61773.84;4963212;28;20038;-34
2021/07/31 07:55:43;;;;;;;5.70;1.80;;;;;;;28.22;31.80;61770.59;4963111;28;20456;-32
2021/07/31 07:58:09;;;;;;;7.13;1.80;;;;;;;28.20;31.67;61767.66;4963076;28;20030;-35
2021/07/31 08:00:35;;;;;;;5.57;2.00;;;;;;;28.17;31.65;61764.84;4963002;28;20085;-31
2021/07/31 08:03:00;;;;;;;8.18;2.05;;;;;;;28.15;31.81;61761.75;4962294;28;20030;-32
2021/07/31 08:05:26;;;;;;;5.32;1.85;;;;;;;28.12;31.77;61759.44;4964392;28;20497;-34
2021/07/31 08:07:51;;;;;;;9.20;2.30;;;;;;;28.09;31.75;61756.69;4962336;28;20038;-36
2021/07/31 08:10:17;;;;;;;6.88;1.70;;;;;;;28.07;31.71;61754.22;4963401;28;20034;-34
2021/07/31 08:12:42;;;;;;;8.50;2.17;;;;;;;28.04;31.73;61751.59;4963512;28;20693;-36
2021/07/31 08:15:08;;;;;;;6.63;2.00;;;;;;;28.02;31.69;61749.09;4964543;28;20619;-36
2021/07/31 08:17:33;;;;;;;4.05;1.83;;;;;;;28.00;31.78;61746.59;4966533;28;21628;-34
2021/07/31 08:19:59;;;;;;;5.15;1.92;;;;;;;27.97;31.82;61743.94;4982731;28;20045;-34
2021/07/31 08:22:25;;;;;;;9.13;1.75;;;;;;;27.95;31.59;61742.03;4967864;28;20042;-33
2021/07/31 08:24:50;;;;;;;6.68;1.67;;;;;;;27.93;31.60;61739.69;4969475;28;20109;-37
2021/07/31 08:27:15;;;;;;;8.07;2.10;;;;;;;27.91;31.71;61737.31;4964359;28;20035;-35
2021/07/31 08:29:41;;;;;;;7.75;2.10;;;;;;;27.89;31.62;61734.94;4964374;28;20038;-35
2021/07/31 08:32:06;;;;;;;18.13;2.47;;;;;;;27.87;31.86;61732.53;4980421;28;20037;-32
2021/07/31 08:34:32;;;;;;;14.90;2.08;;;;;;;27.85;31.85;61730.59;4968382;28;20015;-33
2021/07/31 08:37:02;;;;;;;10.63;2.00;;;;;;;27.83;32.08;61728.97;4967022;28;20053;-35
2021/07/31 08:39:27;;;;;;;14.10;2.40;;;;;;;27.81;32.14;61727.31;4965901;28;20125;-37
2021/07/31 08:41:52;;;;;;;7.10;2.10;;;;;;;27.80;32.24;61725.91;4962371;28;20034;-35
2021/07/31 08:44:18;;;;;;;16.02;2.33;;;;;;;27.79;32.42;61724.63;4967689;28;20017;-36
2021/07/31 08:46:46;;;;;;;13.02;2.35;;;;;;;27.78;32.33;61723.97;4963373;28;20031;-37
2021/07/31 08:49:13;;;;;;;11.05;2.25;;;;;;;27.78;32.23;61723.69;4966800;28;20041;-33
2021/07/31 08:51:38;;;;;;;9.15;2.10;;;;;;;27.78;32.42;61723.91;4964853;28;20300;-36
2021/07/31 08:54:04;;;;;;;8.70;2.05;;;;;;;27.78;32.40;61723.41;4963881;28;20037;-34
2021/07/31 08:56:29;;;;;;;6.60;2.03;;;;;;;27.78;32.40;61723.84;4963163;28;20373;-33
2021/07/31 08:58:57;;;;;;;7.15;2.17;;;;;;;27.78;32.46;61724.13;4971259;28;20033;-35
2021/07/31 09:01:24;;;;;;;9.85;2.08;;;;;;;27.79;32.60;61724.53;4967241;28;20030;-29
2021/07/31 09:03:54;;;;;;;10.00;2.00;;;;;;;27.80;32.74;61725.34;4970262;28;20535;-34
2021/07/31 09:06:29;;;;;;;7.25;2.22;;;;;;;27.80;32.64;61726.34;4969506;28;20031;-38
2021/07/31 09:08:55;;;;;;;6.15;2.00;;;;;;;27.81;32.75;61727.47;4970368;28;20107;-38
2021/07/31 09:11:21;;;;;;;12.45;1.98;;;;;;;27.82;32.86;61728.72;4964697;28;20480;-33
2021/07/31 09:13:46;;;;;;;7.03;2.28;;;;;;;27.83;32.78;61729.84;4963522;28;20030;-33
2021/07/31 09:16:13;;;;;;;4.55;1.80;;;;;;;27.84;32.74;61731.28;4964926;28;20070;-31
2021/07/31 09:18:44;;;;;;;9.18;1.85;;;;;;;27.86;32.54;61732.69;4984934;28;20074;-32
2021/07/31 09:21:16;;;;;;;4.72;2.03;;;;;;;27.87;32.44;61733.91;4970132;28;20077;-36
2021/07/31 09:23:46;;;;;;;5.47;1.85;;;;;;;27.88;32.22;61735.44;4968361;28;20019;-32
2021/07/31 09:26:33;;;;;;;7.75;1.50;;;;;;;27.90;31.79;61737.19;4970976;28;20026;-34
2021/07/31 09:29:08;;;;;;;8.55;1.80;;;;;;;27.91;31.94;61738.84;4967733;28;20026;-35
2021/07/31 09:31:34;;;;;;;3.78;1.75;;;;;;;27.92;31.82;61740.22;4966033;28;20037;-32
2021/07/31 09:34:02;;;;;;;5.32;1.77;;;;;;;27.94;31.71;61741.16;4983734;28;20512;-38
2021/07/31 09:36:38;;;;;;;6.75;1.65;;;;;;;27.95;31.91;61742.97;4972414;28;20124;-33
2021/07/31 09:39:05;;;;;;;15.27;2.33;;;;;;;27.97;31.92;61744.34;4970875;28;20038;-34
2021/07/31 09:41:36;;;;;;;4.78;1.65;;;;;;;27.98;31.81;61746.19;4970310;28;20033;-37
2021/07/31 09:44:15;;;;;;;3.25;1.70;;;;;;;28.00;31.78;61747.25;4969904;28;20069;-37
2021/07/31 09:46:46;;;;;;;6.82;1.90;;;;;;;28.01;31.83;61748.66;4982729;28;20023;-35
2021/07/31 09:49:19;;;;;;;4.10;1.92;;;;;;;28.02;31.96;61750.47;4968759;28;20030;-36
2021/07/31 09:51:51;;;;;;;4.05;1.80;;;;;;;28.04;31.82;61751.84;4969530;28;20388;-37
2021/07/31 09:54:18;;;;;;;5.57;1.85;;;;;;;28.05;31.09;61752.81;4973072;28;20026;-34
2021/07/31 09:56:56;;;;;;;5.28;1.77;;;;;;;28.06;31.42;61754.03;4962168;28;20041;-36
2021/07/31 10:00:21;;;;;;;5.32;1.90;;;;;;;-148.56;100.00;61375.16;4960442;28;20161;-32
2021/07/31 10:02:52;;;;;;;15.15;2.40;;;;;;;28.06;31.42;61754.03;4962990;28;20019;-33
2021/07/31 10:05:18;;;;;;;13.63;2.83;;;;;;;28.07;30.64;61755.44;4983565;28;20022;-32
2021/07/31 10:07:43;;;;;;;22.25;2.80;;;;;;;28.09;30.38;61756.16;4979221;28;20512;-32
2021/07/31 10:10:09;;;;;;;9.45;2.35;;;;;;;28.10;30.51;61757.63;4964125;28;20489;-31
2021/07/31 10:12:34;;;;;;;10.82;1.75;;;;;;;28.11;29.38;61758.72;4959303;28;20038;-34
2021/07/31 10:15:19;;;;;;;8.63;1.80;;;;;;;28.11;29.38;60673.88;4957579;28;20093;-38
2021/07/31 10:17:44;;;;;;;4.72;1.73;;;;;;;28.11;29.40;61759.06;4966300;28;20038;-36
2021/07/31 10:20:12;;;;;;;4.85;1.52;;;;;;;28.12;29.24;61759.91;4964386;28;20039;-37
2021/07/31 10:22:42;;;;;;;5.38;2.05;;;;;;;28.13;29.56;61761.19;4962559;28;20026;-34
2021/07/31 10:25:18;;;;;;;3.75;1.80;;;;;;;28.15;29.75;61762.81;4969215;28;20038;-36
2021/07/31 10:27:53;;;;;;;11.52;2.70;;;;;;;-148.56;100.00;61375.16;4965553;28;20031;-40
2021/07/31 10:30:34;;;;;;;9.57;2.28;;;;;;;28.19;29.82;61766.38;4976100;28;20039;-36
2021/07/31 10:33:00;;;;;;;9.70;2.03;;;;;;;28.24;30.44;61771.66;4967868;28;20070;-35
2021/07/31 10:35:26;;;;;;;11.05;2.90;;;;;;;28.29;29.10;61777.69;4984868;28;20456;-33
2021/07/31 10:37:53;;;;;;;12.07;2.40;;;;;;;28.36;28.88;61784.78;4967006;28;20131;-37
2021/07/31 10:40:32;;;;;;;7.22;2.10;;;;;;;28.43;28.08;61792.81;4963954;28;20492;-34
2021/07/31 10:43:00;;;;;;;6.03;2.08;;;;;;;28.52;27.97;61802.03;4971445;28;20054;-37
2021/07/31 10:45:29;;;;;;;5.07;2.10;;;;;;;28.61;28.36;61812.06;4968252;28;20191;-37
2021/07/31 10:47:55;;;;;;;9.38;2.20;;;;;;;28.71;27.69;61822.03;4968237;28;20068;-35
2021/07/31 10:50:26;;;;;;;13.18;2.90;;;;;;;28.81;28.70;61832.56;4968072;28;20027;-34
2021/07/31 10:53:01;;;;;;;8.32;2.78;;;;;;;28.91;28.25;61843.72;4970938;28;20030;-39
2021/07/31 10:55:36;;;;;;;5.40;2.20;;;;;;;29.02;27.15;61855.13;4969743;28;20038;-35
2021/07/31 10:58:01;;;;;;;5.05;2.08;;;;;;;29.13;27.35;61866.53;4970525;28;20082;-34
2021/07/31 11:00:27;;;;;;;7.85;1.90;;;;;;;29.23;27.03;61877.94;4968688;28;20152;-35
2021/07/31 11:02:53;;;;;;;7.22;2.45;;;;;;;29.34;27.33;61889.53;4970498;28;20029;-36
2021/07/31 11:05:19;;;;;;;6.03;2.15;;;;;;;29.45;27.27;61900.94;4965757;28;20034;-39
2021/07/31 11:07:56;;;;;;;5.53;2.28;;;;;;;29.55;26.74;61912.22;4966389;28;20031;-36
2021/07/31 11:10:32;;;;;;;5.78;2.10;;;;;;;29.66;26.75;61923.03;4966899;28;20129;-39
2021/07/31 11:12:58;;;;;;;6.32;1.92;;;;;;;29.76;26.12;61934.06;4969568;28;20026;-35
2021/07/31 11:15:23;;;;;;;6.28;1.95;;;;;;;29.85;26.30;61944.06;4964419;28;20080;-34
2021/07/31 11:18:09;;;;;;;6.50;2.22;;;;;;;29.95;26.26;61953.97;4961837;28;20437;-38
2021/07/31 11:20:36;;;;;;;5.18;2.17;;;;;;;30.03;26.17;61963.25;4963156;28;20042;-34
2021/07/31 11:23:03;;;;;;;6.10;2.10;;;;;;;30.12;27.26;61971.81;4965139;28;20039;-32
2021/07/31 11:25:29;;;;;;;4.72;2.20;;;;;;;30.20;27.07;61981.06;4968420;28;20048;-40
2021/07/31 11:27:54;;;;;;;6.07;2.22;;;;;;;30.28;26.34;61989.09;4967086;28;20444;-34
2021/07/31 11:30:20;;;;;;;6.13;2.10;;;;;;;30.35;26.35;61996.91;4964719;28;20088;-37